Time;durP1;ratioP1;P1;durP2;ratioP2;P2;SDS_P1;SDS_P2;PMS_P1;PMS_P2;Temp;Humidity;BMP_temperature;BMP_pressure;BME280_temperature;BME280_humidity;BME280_pressure;Samples;Min_cycle;Max_cycle;Signal;HPM_P1;HPM_P2
2023/06/16 00:02:08;;;;;;;11.38;4.43;;;;;;;;;;4987203;28;98423;-79
2023/06/16 00:04:35;;;;;;;11.48;4.15;;;;;;;;;;4973991;28;98722;-78
2023/06/16 00:07:01;;;;;;;13.80;4.10;;;;;;;;;;4966418;28;98443;-78
2023/06/16 00:09:28;;;;;;;9.50;3.72;;;;;;;;;;4986175;28;98495;-78
2023/06/16 00:11:55;;;;;;;12.70;4.68;;;;;;;;;;4977501;28;98549;-78
2023/06/16 00:14:21;;;;;;;11.00;4.18;;;;;;;;;;4983919;28;98534;-78
2023/06/16 00:16:48;;;;;;;7.15;4.05;;;;;;;;;;4978696;28;97669;-78
2023/06/16 00:19:15;;;;;;;5.53;3.60;;;;;;;;;;4962479;28;98678;-77
2023/06/16 00:21:44;;;;;;;11.27;4.47;;;;;;;;;;4970152;28;98808;-78
2023/06/16 00:24:11;;;;;;;7.30;4.00;;;;;;;;;;4950165;28;99249;-78
2023/06/16 00:26:38;;;;;;;9.80;4.78;;;;;;;;;;4967571;28;98488;-78
2023/06/16 00:29:05;;;;;;;12.73;4.35;;;;;;;;;;4961258;28;98631;-78
2023/06/16 00:31:32;;;;;;;6.88;3.95;;;;;;;;;;4975466;28;98492;-78
2023/06/16 00:33:59;;;;;;;15.13;4.28;;;;;;;;;;4958178;28;99704;-77
2023/06/16 00:36:25;;;;;;;16.42;3.80;;;;;;;;;;4972546;28;99251;-77
2023/06/16 00:38:52;;;;;;;20.90;5.50;;;;;;;;;;4977555;28;98352;-78
2023/06/16 00:41:19;;;;;;;7.25;3.70;;;;;;;;;;4956787;28;99823;-78
2023/06/16 00:43:45;;;;;;;6.95;4.00;;;;;;;;;;4976156;28;99427;-77
2023/06/16 00:46:26;;;;;;;5.70;4.15;;;;;;;;;;4956572;28;98627;-78
2023/06/16 00:48:53;;;;;;;4.85;3.83;;;;;;;;;;4941439;28;99360;-78
2023/06/16 00:51:19;;;;;;;9.98;4.43;;;;;;;;;;4952849;28;101124;-78
2023/06/16 00:53:46;;;;;;;7.35;4.20;;;;;;;;;;4950017;28;101060;-78
2023/06/16 00:56:12;;;;;;;5.43;4.07;;;;;;;;;;4955594;28;98490;-78
2023/06/16 00:58:39;;;;;;;6.28;3.70;;;;;;;;;;4956782;28;98569;-78
2023/06/16 01:01:06;;;;;;;5.43;4.10;;;;;;;;;;4955523;28;100013;-78
2023/06/16 01:03:33;;;;;;;10.90;4.18;;;;;;;;;;4982756;28;99354;-77
2023/06/16 01:06:03;;;;;;;6.50;4.07;;;;;;;;;;4966093;28;97283;-78
2023/06/16 01:08:35;;;;;;;4.78;3.88;;;;;;;;;;4972435;28;98222;-78
2023/06/16 01:11:16;;;;;;;9.02;4.40;;;;;;;;;;4993676;28;99230;-78
2023/06/16 01:13:45;;;;;;;6.10;3.75;;;;;;;;;;4980318;28;98735;-78
2023/06/16 01:16:12;;;;;;;6.40;3.90;;;;;;;;;;4979973;28;98205;-79
2023/06/16 01:18:39;;;;;;;5.47;4.47;;;;;;;;;;4962752;28;98473;-78
2023/06/16 01:21:09;;;;;;;4.10;3.58;;;;;;;;;;4978081;28;99864;-78
2023/06/16 01:23:37;;;;;;;14.60;4.30;;;;;;;;;;4944995;28;100269;-78
2023/06/16 01:26:04;;;;;;;4.75;4.13;;;;;;;;;;4967244;28;98724;-78
2023/06/16 01:28:32;;;;;;;6.15;4.07;;;;;;;;;;4963155;28;100254;-78
2023/06/16 01:31:00;;;;;;;4.43;3.80;;;;;;;;;;4973983;28;100510;-78
2023/06/16 01:33:27;;;;;;;7.43;3.78;;;;;;;;;;4985763;28;99577;-78
2023/06/16 01:35:53;;;;;;;7.15;3.53;;;;;;;;;;4979699;28;99295;-79
2023/06/16 01:38:21;;;;;;;7.40;4.05;;;;;;;;;;4968173;28;99144;-79
2023/06/16 01:40:49;;;;;;;3.55;3.22;;;;;;;;;;4957661;28;101452;-78
2023/06/16 01:43:16;;;;;;;14.30;4.07;;;;;;;;;;4987479;28;98429;-77
2023/06/16 01:45:44;;;;;;;3.75;3.45;;;;;;;;;;5003170;28;97754;-78
2023/06/16 01:48:11;;;;;;;5.25;3.33;;;;;;;;;;4988800;28;98301;-78
2023/06/16 01:50:37;;;;;;;6.15;3.88;;;;;;;;;;4965869;28;98284;-78
2023/06/16 01:53:04;;;;;;;4.55;3.65;;;;;;;;;;4965957;28;98690;-78
2023/06/16 01:55:31;;;;;;;8.55;4.13;;;;;;;;;;4987611;28;98090;-78
2023/06/16 01:57:57;;;;;;;10.45;3.38;;;;;;;;;;4970282;28;98464;-78
2023/06/16 02:00:36;;;;;;;4.50;3.47;;;;;;;;;;4963965;28;101888;-78
2023/06/16 02:03:07;;;;;;;9.32;3.97;;;;;;;;;;4984295;28;99954;-79
2023/06/16 02:05:35;;;;;;;5.47;3.95;;;;;;;;;;4962531;28;98557;-79
2023/06/16 02:08:06;;;;;;;7.45;4.63;;;;;;;;;;4957631;28;98555;-78
2023/06/16 02:10:33;;;;;;;8.18;4.22;;;;;;;;;;4966949;28;101367;-78
2023/06/16 02:12:59;;;;;;;4.10;3.70;;;;;;;;;;4967004;28;98706;-78
2023/06/16 02:15:27;;;;;;;12.90;4.45;;;;;;;;;;4983266;28;98429;-78
2023/06/16 02:17:57;;;;;;;5.25;3.78;;;;;;;;;;4969962;28;98603;-78
2023/06/16 02:20:25;;;;;;;6.80;4.40;;;;;;;;;;4959492;28;100924;-78
2023/06/16 02:22:52;;;;;;;6.65;4.53;;;;;;;;;;4965310;28;100908;-78
2023/06/16 02:25:19;;;;;;;4.18;3.63;;;;;;;;;;4953754;28;98601;-78
2023/06/16 02:27:46;;;;;;;7.28;3.97;;;;;;;;;;4971429;28;98912;-78
2023/06/16 02:30:13;;;;;;;9.40;4.47;;;;;;;;;;4957385;28;98539;-77
2023/06/16 02:32:40;;;;;;;6.32;4.07;;;;;;;;;;4974308;28;98576;-78
2023/06/16 02:35:22;;;;;;;5.72;4.68;;;;;;;;;;4952167;28;101230;-78
2023/06/16 02:37:51;;;;;;;9.98;4.18;;;;;;;;;;4975470;28;98549;-78
2023/06/16 02:40:18;;;;;;;4.20;3.70;;;;;;;;;;4951724;28;98856;-77
2023/06/16 02:42:45;;;;;;;4.55;4.07;;;;;;;;;;4958246;28;98490;-77
2023/06/16 02:45:11;;;;;;;6.00;4.40;;;;;;;;;;4970221;28;97603;-78
2023/06/16 02:47:41;;;;;;;5.20;3.35;;;;;;;;;;4976103;28;98442;-78
2023/06/16 02:50:08;;;;;;;7.32;4.28;;;;;;;;;;4953404;28;101370;-77
2023/06/16 02:52:36;;;;;;;7.97;4.53;;;;;;;;;;4946124;28;99206;-78
2023/06/16 02:55:04;;;;;;;9.90;3.65;;;;;;;;;;4953423;28;101535;-77
2023/06/16 02:57:39;;;;;;;3.95;3.65;;;;;;;;;;4958208;28;101771;-78
2023/06/16 03:00:09;;;;;;;6.68;4.47;;;;;;;;;;4957518;28;98162;-77
2023/06/16 03:02:44;;;;;;;5.47;3.80;;;;;;;;;;4957542;28;99066;-78
2023/06/16 03:05:11;;;;;;;6.90;3.97;;;;;;;;;;4950515;28;98202;-77
2023/06/16 03:07:40;;;;;;;11.35;4.68;;;;;;;;;;4954543;28;101932;-77
2023/06/16 03:10:07;;;;;;;6.22;4.10;;;;;;;;;;4943803;28;99618;-78
2023/06/16 03:12:50;;;;;;;7.70;4.65;;;;;;;;;;4943183;28;98557;-77
2023/06/16 03:15:16;;;;;;;9.13;4.70;;;;;;;;;;4966120;28;102154;-77
2023/06/16 03:17:43;;;;;;;6.40;3.95;;;;;;;;;;4961573;28;98900;-77
2023/06/16 03:20:10;;;;;;;6.93;4.45;;;;;;;;;;4954792;28;98400;-78
2023/06/16 03:22:47;;;;;;;7.10;4.68;;;;;;;;;;4959590;28;99642;-77
2023/06/16 03:25:15;;;;;;;17.45;4.65;;;;;;;;;;4943060;28;98570;-77
2023/06/16 03:27:45;;;;;;;9.95;4.28;;;;;;;;;;4950916;28;100678;-77
2023/06/16 03:30:15;;;;;;;8.07;3.55;;;;;;;;;;4946879;28;98471;-77
2023/06/16 03:32:55;;;;;;;15.05;4.57;;;;;;;;;;4950334;28;98654;-78
2023/06/16 03:35:22;;;;;;;6.55;4.07;;;;;;;;;;4959992;28;97801;-78
2023/06/16 03:37:51;;;;;;;9.10;4.03;;;;;;;;;;4958435;28;99271;-78
2023/06/16 03:40:19;;;;;;;7.50;4.07;;;;;;;;;;4955513;28;98625;-78
2023/06/16 03:42:46;;;;;;;5.97;3.60;;;;;;;;;;4947791;28;99645;-77
2023/06/16 03:45:13;;;;;;;6.85;4.57;;;;;;;;;;4952166;28;100904;-77
2023/06/16 03:47:40;;;;;;;7.20;4.18;;;;;;;;;;4950437;28;101004;-77
2023/06/16 03:50:07;;;;;;;4.90;3.70;;;;;;;;;;4936044;28;98434;-77
2023/06/16 03:52:36;;;;;;;10.75;4.32;;;;;;;;;;4956287;28;98540;-77
2023/06/16 03:55:03;;;;;;;5.18;4.00;;;;;;;;;;4954604;28;97907;-77
2023/06/16 03:57:30;;;;;;;9.13;4.60;;;;;;;;;;4938553;28;98424;-78
2023/06/16 03:59:57;;;;;;;5.25;3.72;;;;;;;;;;4954571;28;97881;-77
2023/06/16 04:02:24;;;;;;;5.45;3.95;;;;;;;;;;4958729;28;98960;-77
2023/06/16 04:04:51;;;;;;;7.13;4.00;;;;;;;;;;4954807;28;101559;-77
2023/06/16 04:07:21;;;;;;;6.88;4.13;;;;;;;;;;4956280;28;99377;-77
2023/06/16 04:09:50;;;;;;;4.50;4.10;;;;;;;;;;4928301;28;98556;-78
2023/06/16 04:12:16;;;;;;;9.02;4.88;;;;;;;;;;4953900;28;98599;-78
2023/06/16 04:14:43;;;;;;;5.32;4.40;;;;;;;;;;4966608;28;98972;-78
2023/06/16 04:17:11;;;;;;;5.93;4.10;;;;;;;;;;4950167;28;98472;-78
2023/06/16 04:19:41;;;;;;;11.30;4.65;;;;;;;;;;4961183;28;98291;-78
2023/06/16 04:22:07;;;;;;;8.48;4.35;;;;;;;;;;4958598;28;100074;-78
2023/06/16 04:24:45;;;;;;;5.43;3.80;;;;;;;;;;4974459;28;101437;-78
2023/06/16 04:27:11;;;;;;;5.13;4.18;;;;;;;;;;4967826;28;98515;-78
2023/06/16 04:29:41;;;;;;;9.75;5.97;;;;;;;;;;4966235;28;100123;-78
2023/06/16 04:32:13;;;;;;;15.90;7.88;;;;;;;;;;4966314;28;99189;-78
2023/06/16 04:34:43;;;;;;;11.52;6.13;;;;;;;;;;4961792;28;100545;-78
2023/06/16 04:37:14;;;;;;;7.28;5.70;;;;;;;;;;4965521;28;100323;-78
2023/06/16 04:39:41;;;;;;;7.97;5.10;;;;;;;;;;4984756;28;98552;-77
2023/06/16 04:42:10;;;;;;;10.77;5.10;;;;;;;;;;4943768;28;99954;-78
2023/06/16 04:44:40;;;;;;;7.57;4.63;;;;;;;;;;4957831;28;98561;-78
2023/06/16 04:47:09;;;;;;;6.50;4.82;;;;;;;;;;4933422;28;98559;-79
2023/06/16 04:49:36;;;;;;;11.48;4.82;;;;;;;;;;4960059;28;98044;-77
2023/06/16 04:52:02;;;;;;;10.35;5.65;;;;;;;;;;4960408;28;98390;-78
2023/06/16 04:54:29;;;;;;;6.28;4.53;;;;;;;;;;4974868;28;98555;-78
2023/06/16 04:56:56;;;;;;;6.13;4.68;;;;;;;;;;4960905;28;101701;-78
2023/06/16 04:59:22;;;;;;;11.20;4.40;;;;;;;;;;4959900;28;98606;-78
2023/06/16 05:01:50;;;;;;;6.25;4.82;;;;;;;;;;4961090;28;100307;-79
2023/06/16 05:04:17;;;;;;;7.50;4.97;;;;;;;;;;4992158;28;100064;-78
2023/06/16 05:06:44;;;;;;;12.02;5.10;;;;;;;;;;4970662;28;98604;-78
2023/06/16 05:09:10;;;;;;;13.00;5.63;;;;;;;;;;4973756;28;99273;-78
2023/06/16 05:11:37;;;;;;;11.50;5.22;;;;;;;;;;4968324;28;100922;-78
2023/06/16 05:14:04;;;;;;;8.13;5.25;;;;;;;;;;4961727;28;97885;-79
2023/06/16 05:16:30;;;;;;;14.02;6.28;;;;;;;;;;4952965;28;101377;-77
2023/06/16 05:18:58;;;;;;;9.70;6.32;;;;;;;;;;4959137;28;98643;-77
2023/06/16 05:21:26;;;;;;;11.15;5.90;;;;;;;;;;4965448;28;101310;-77
2023/06/16 05:23:57;;;;;;;14.55;6.97;;;;;;;;;;4972664;28;100701;-78
2023/06/16 05:26:24;;;;;;;13.88;6.22;;;;;;;;;;4973337;28;98581;-77
2023/06/16 05:28:51;;;;;;;9.82;6.53;;;;;;;;;;4995393;28;98290;-78
2023/06/16 05:31:19;;;;;;;9.85;6.53;;;;;;;;;;4971144;28;99239;-78
2023/06/16 05:33:48;;;;;;;11.50;7.20;;;;;;;;;;4965314;28;98460;-78
2023/06/16 05:36:15;;;;;;;10.50;6.72;;;;;;;;;;4973650;28;101076;-78
2023/06/16 05:38:42;;;;;;;14.60;6.78;;;;;;;;;;4960928;28;97910;-78
2023/06/16 05:41:10;;;;;;;14.27;6.30;;;;;;;;;;4979500;28;98453;-78
2023/06/16 05:43:41;;;;;;;9.32;7.43;;;;;;;;;;4944972;28;99265;-79
2023/06/16 05:46:07;;;;;;;9.48;6.72;;;;;;;;;;4985416;28;99098;-78
2023/06/16 05:48:35;;;;;;;12.38;6.90;;;;;;;;;;4971601;28;99616;-78
2023/06/16 05:51:02;;;;;;;9.70;6.30;;;;;;;;;;4966499;28;100096;-77
2023/06/16 05:53:29;;;;;;;14.90;6.95;;;;;;;;;;4968309;28;98565;-77
2023/06/16 05:55:56;;;;;;;12.35;6.07;;;;;;;;;;4961833;28;99982;-77
2023/06/16 05:58:25;;;;;;;11.90;6.35;;;;;;;;;;4951488;28;98473;-78
2023/06/16 06:00:52;;;;;;;11.98;5.57;;;;;;;;;;4948944;28;99696;-78
2023/06/16 06:03:20;;;;;;;16.05;6.43;;;;;;;;;;4964070;28;98767;-78
2023/06/16 06:05:47;;;;;;;11.05;6.82;;;;;;;;;;4964248;28;98528;-78
2023/06/16 06:08:14;;;;;;;8.32;5.90;;;;;;;;;;4980710;28;99295;-78
2023/06/16 06:10:41;;;;;;;11.23;7.10;;;;;;;;;;4944627;28;99204;-78
2023/06/16 06:13:08;;;;;;;12.02;7.32;;;;;;;;;;4960817;28;97878;-78
2023/06/16 06:15:37;;;;;;;14.75;7.07;;;;;;;;;;4961764;28;101903;-77
2023/06/16 06:18:08;;;;;;;18.58;7.13;;;;;;;;;;4966841;28;101159;-78
2023/06/16 06:20:38;;;;;;;12.02;6.05;;;;;;;;;;4962739;28;98466;-78
2023/06/16 06:23:05;;;;;;;11.93;5.88;;;;;;;;;;4963739;28;100080;-78
2023/06/16 06:25:32;;;;;;;14.80;6.05;;;;;;;;;;4962931;28;98511;-77
2023/06/16 06:27:58;;;;;;;10.23;6.00;;;;;;;;;;4981454;28;97622;-78
2023/06/16 06:30:27;;;;;;;12.05;5.93;;;;;;;;;;4976419;28;99518;-78
2023/06/16 06:32:57;;;;;;;10.32;5.20;;;;;;;;;;4949550;28;98535;-78
2023/06/16 06:35:25;;;;;;;7.72;5.47;;;;;;;;;;4953787;28;100047;-78
2023/06/16 06:37:52;;;;;;;12.30;5.10;;;;;;;;;;4959698;28;101152;-78
2023/06/16 06:40:19;;;;;;;9.00;5.43;;;;;;;;;;4950533;28;98583;-78
2023/06/16 06:42:46;;;;;;;9.57;5.88;;;;;;;;;;4978400;28;98460;-78
2023/06/16 06:45:27;;;;;;;10.00;5.32;;;;;;;;;;4962514;28;98543;-78
2023/06/16 06:47:55;;;;;;;8.55;5.88;;;;;;;;;;4961842;28;100071;-78
2023/06/16 06:50:23;;;;;;;5.13;4.65;;;;;;;;;;4964742;28;98359;-78
2023/06/16 06:52:49;;;;;;;5.72;4.78;;;;;;;;;;4981413;28;97182;-78
2023/06/16 06:55:16;;;;;;;5.47;4.45;;;;;;;;;;4978527;28;98208;-78
2023/06/16 06:57:42;;;;;;;7.90;5.25;;;;;;;;;;4981760;28;100087;-79
2023/06/16 07:00:10;;;;;;;6.22;5.50;;;;;;;;;;4992221;28;99334;-79
2023/06/16 07:02:36;;;;;;;9.88;5.10;;;;;;;;;;4967401;28;100746;-78
2023/06/16 07:05:03;;;;;;;8.55;5.80;;;;;;;;;;4991679;28;98543;-78
2023/06/16 07:07:30;;;;;;;7.22;5.00;;;;;;;;;;4967268;28;98313;-78
2023/06/16 07:09:56;;;;;;;8.20;4.38;;;;;;;;;;4958414;28;98645;-78
2023/06/16 07:12:23;;;;;;;7.68;4.05;;;;;;;;;;4987134;28;97684;-78
2023/06/16 07:14:49;;;;;;;6.25;4.32;;;;;;;;;;4982930;28;98686;-78
2023/06/16 07:17:16;;;;;;;5.07;4.47;;;;;;;;;;4952662;28;97228;-78
2023/06/16 07:19:42;;;;;;;5.38;4.00;;;;;;;;;;4966167;28;97710;-78
2023/06/16 07:22:09;;;;;;;4.40;4.10;;;;;;;;;;4961512;28;100170;-78
2023/06/16 07:24:36;;;;;;;5.32;4.20;;;;;;;;;;4955379;28;99222;-78
2023/06/16 07:27:03;;;;;;;5.30;3.65;;;;;;;;;;4985917;28;98463;-78
2023/06/16 07:29:30;;;;;;;4.55;3.22;;;;;;;;;;4976839;28;98127;-78
2023/06/16 07:31:56;;;;;;;6.90;3.50;;;;;;;;;;4939394;28;98347;-78
2023/06/16 07:34:23;;;;;;;9.93;3.25;;;;;;;;;;4968305;28;99710;-78
2023/06/16 07:36:49;;;;;;;3.95;3.40;;;;;;;;;;4960401;28;98577;-77
2023/06/16 07:39:17;;;;;;;6.30;3.60;;;;;;;;;;4996587;28;98028;-77
2023/06/16 07:41:43;;;;;;;4.95;3.10;;;;;;;;;;4972786;28;99113;-78
2023/06/16 07:44:10;;;;;;;7.30;2.95;;;;;;;;;;4956783;28;99264;-78
2023/06/16 07:46:36;;;;;;;6.28;3.42;;;;;;;;;;4975864;28;98174;-78
2023/06/16 07:49:04;;;;;;;6.07;2.83;;;;;;;;;;4973734;28;99930;-79
2023/06/16 07:51:30;;;;;;;10.07;3.33;;;;;;;;;;4958282;28;98679;-78
2023/06/16 07:53:57;;;;;;;5.05;3.50;;;;;;;;;;4972838;28;98546;-78
2023/06/16 07:56:24;;;;;;;5.07;3.55;;;;;;;;;;4977506;28;99115;-78
2023/06/16 07:58:50;;;;;;;3.67;3.15;;;;;;;;;;4958388;28;98347;-78
2023/06/16 08:01:16;;;;;;;5.07;3.22;;;;;;;;;;4973343;28;98538;-78
2023/06/16 08:03:46;;;;;;;6.95;3.10;;;;;;;;;;4959993;28;100128;-78
2023/06/16 08:06:14;;;;;;;3.50;2.67;;;;;;;;;;4978222;28;97642;-78
2023/06/16 08:08:40;;;;;;;10.65;2.90;;;;;;;;;;4974708;28;98313;-79
2023/06/16 08:11:07;;;;;;;7.13;3.15;;;;;;;;;;4967816;28;98603;-79
2023/06/16 08:13:33;;;;;;;11.27;2.95;;;;;;;;;;4965354;28;99029;-79
2023/06/16 08:16:00;;;;;;;5.63;3.30;;;;;;;;;;4981274;28;99352;-78
2023/06/16 08:18:27;;;;;;;4.32;2.97;;;;;;;;;;4976226;28;98420;-78
2023/06/16 08:20:53;;;;;;;11.52;2.78;;;;;;;;;;4965861;28;98521;-79
2023/06/16 08:23:20;;;;;;;3.03;2.75;;;;;;;;;;4946636;28;98476;-78
2023/06/16 08:25:47;;;;;;;3.13;2.40;;;;;;;;;;4971608;28;98233;-78
2023/06/16 08:28:14;;;;;;;3.30;2.47;;;;;;;;;;4978231;28;99155;-78
2023/06/16 08:30:40;;;;;;;3.65;2.53;;;;;;;;;;4953559;28;97896;-78
2023/06/16 08:33:09;;;;;;;3.20;2.70;;;;;;;;;;4953185;28;98476;-78
2023/06/16 08:35:40;;;;;;;2.67;2.47;;;;;;;;;;4984540;28;98516;-78
2023/06/16 08:38:07;;;;;;;3.28;2.70;;;;;;;;;;4980168;28;99391;-78
2023/06/16 08:40:34;;;;;;;4.30;2.50;;;;;;;;;;4937575;28;98619;-78
2023/06/16 08:43:04;;;;;;;4.75;2.60;;;;;;;;;;4971262;28;98508;-78
2023/06/16 08:45:32;;;;;;;4.65;2.83;;;;;;;;;;4982529;28;98508;-78
2023/06/16 08:47:58;;;;;;;3.25;2.67;;;;;;;;;;4959508;28;100321;-78
2023/06/16 08:50:26;;;;;;;3.83;2.53;;;;;;;;;;4970837;28;100643;-78
2023/06/16 08:52:57;;;;;;;4.75;2.70;;;;;;;;;;4949819;28;98511;-78
2023/06/16 08:55:25;;;;;;;8.63;2.80;;;;;;;;;;4972510;28;98110;-78
2023/06/16 08:57:52;;;;;;;4.13;3.22;;;;;;;;;;4968649;28;98529;-79
2023/06/16 09:00:19;;;;;;;3.35;2.92;;;;;;;;;;4958824;28;98455;-79
2023/06/16 09:02:49;;;;;;;6.97;2.60;;;;;;;;;;4972458;28;99937;-78
2023/06/16 09:05:18;;;;;;;3.50;2.58;;;;;;;;;;4939615;28;99069;-78
2023/06/16 09:07:45;;;;;;;5.68;2.60;;;;;;;;;;4974659;28;98724;-79
2023/06/16 09:10:12;;;;;;;2.50;2.30;;;;;;;;;;4960736;28;99942;-78
2023/06/16 09:12:39;;;;;;;4.25;2.72;;;;;;;;;;4965781;28;98567;-78
2023/06/16 09:15:08;;;;;;;5.32;2.67;;;;;;;;;;4971060;28;98038;-79
2023/06/16 09:17:35;;;;;;;5.35;2.90;;;;;;;;;;4986251;28;98571;-78
2023/06/16 09:20:01;;;;;;;8.15;2.80;;;;;;;;;;4964497;28;99723;-78
2023/06/16 09:22:29;;;;;;;5.72;3.40;;;;;;;;;;4949894;28;98659;-78
2023/06/16 09:24:56;;;;;;;4.13;2.88;;;;;;;;;;4948413;28;98415;-78
2023/06/16 09:27:25;;;;;;;5.40;2.40;;;;;;;;;;4966135;28;99461;-77
2023/06/16 09:29:57;;;;;;;7.90;2.38;;;;;;;;;;4954598;28;98206;-78
2023/06/16 09:32:23;;;;;;;3.67;2.67;;;;;;;;;;4953086;28;98747;-78
2023/06/16 09:34:50;;;;;;;3.97;2.38;;;;;;;;;;4946210;28;98486;-78
2023/06/16 09:37:19;;;;;;;5.35;2.40;;;;;;;;;;4960321;28;98567;-78
2023/06/16 09:39:46;;;;;;;2.95;2.65;;;;;;;;;;4943172;28;98621;-77
2023/06/16 09:42:13;;;;;;;3.17;2.35;;;;;;;;;;4950980;28;98610;-78
2023/06/16 09:44:41;;;;;;;4.97;2.60;;;;;;;;;;4950013;28;97808;-78
2023/06/16 09:47:11;;;;;;;4.85;2.47;;;;;;;;;;4974953;28;98582;-78
2023/06/16 09:49:39;;;;;;;7.07;2.30;;;;;;;;;;4953658;28;98537;-78
2023/06/16 09:52:06;;;;;;;2.97;2.53;;;;;;;;;;4946758;28;99364;-79
2023/06/16 09:54:33;;;;;;;3.05;2.50;;;;;;;;;;4980616;28;98900;-77
2023/06/16 09:57:01;;;;;;;5.60;2.65;;;;;;;;;;4987305;28;98372;-78
2023/06/16 09:59:28;;;;;;;5.38;2.70;;;;;;;;;;4958254;28;100569;-76
2023/06/16 10:01:55;;;;;;;2.72;2.53;;;;;;;;;;4953486;28;101889;-76
2023/06/16 10:04:22;;;;;;;6.38;2.67;;;;;;;;;;4966538;28;98664;-77
2023/06/16 10:06:53;;;;;;;3.67;2.83;;;;;;;;;;4955786;28;101752;-76
2023/06/16 10:09:31;;;;;;;2.67;2.47;;;;;;;;;;4975653;28;97678;-78
2023/06/16 10:11:57;;;;;;;2.97;2.67;;;;;;;;;;4951527;28;98490;-79
2023/06/16 10:14:30;;;;;;;10.63;2.47;;;;;;;;;;4981778;28;98447;-76
2023/06/16 10:16:58;;;;;;;5.60;2.53;;;;;;;;;;4990279;28;99258;-78
2023/06/16 10:19:25;;;;;;;2.63;2.42;;;;;;;;;;4975346;28;98737;-78
2023/06/16 10:21:53;;;;;;;6.18;2.30;;;;;;;;;;4976032;28;98419;-78
2023/06/16 10:24:20;;;;;;;7.63;2.70;;;;;;;;;;4955967;28;98584;-78
2023/06/16 10:26:47;;;;;;;2.75;2.33;;;;;;;;;;4962384;28;98729;-78
2023/06/16 10:29:16;;;;;;;3.35;2.30;;;;;;;;;;4958508;28;98356;-78
2023/06/16 10:31:44;;;;;;;4.95;2.30;;;;;;;;;;4973923;28;98574;-77
2023/06/16 10:34:21;;;;;;;3.53;2.25;;;;;;;;;;4954036;28;100444;-77
2023/06/16 10:36:49;;;;;;;2.58;2.30;;;;;;;;;;4952982;28;101045;-77
2023/06/16 10:39:16;;;;;;;3.13;2.22;;;;;;;;;;4990326;28;98175;-77
2023/06/16 10:41:58;;;;;;;9.07;2.70;;;;;;;;;;4975610;28;99894;-78
2023/06/16 10:44:31;;;;;;;3.65;2.60;;;;;;;;;;4969918;28;98650;-78
2023/06/16 10:47:13;;;;;;;6.25;2.40;;;;;;;;;;4975724;28;98499;-78
2023/06/16 10:49:44;;;;;;;3.72;2.25;;;;;;;;;;4936199;28;98308;-77
2023/06/16 10:52:15;;;;;;;3.05;2.67;;;;;;;;;;4965909;28;98675;-78
2023/06/16 10:54:45;;;;;;;2.45;2.20;;;;;;;;;;4951968;28;98373;-77
2023/06/16 10:57:12;;;;;;;13.30;2.97;;;;;;;;;;4965995;28;99148;-77
2023/06/16 11:00:02;;;;;;;8.48;2.40;;;;;;;;;;4968784;28;97757;-77
2023/06/16 11:02:32;;;;;;;2.92;2.22;;;;;;;;;;4971375;28;98191;-77
2023/06/16 11:05:08;;;;;;;10.82;2.72;;;;;;;;;;4980068;28;98557;-77
2023/06/16 11:07:37;;;;;;;2.80;2.50;;;;;;;;;;4954863;28;100630;-77
2023/06/16 11:10:03;;;;;;;2.80;2.58;;;;;;;;;;4970785;28;98344;-77
2023/06/16 11:12:37;;;;;;;9.02;2.20;;;;;;;;;;5041420;27;92079;-78
2023/06/16 11:15:04;;;;;;;2.63;2.10;;;;;;;;;;5030280;27;92191;-78
2023/06/16 11:17:31;;;;;;;3.83;2.50;;;;;;;;;;5013292;28;91698;-78
2023/06/16 11:20:00;;;;;;;6.78;2.42;;;;;;;;;;5014833;28;93277;-78
2023/06/16 11:22:30;;;;;;;2.35;2.17;;;;;;;;;;5005424;28;92855;-78
2023/06/16 11:24:57;;;;;;;9.48;2.72;;;;;;;;;;5004141;28;92138;-77
2023/06/16 11:27:25;;;;;;;4.07;2.70;;;;;;;;;;5009998;28;92040;-78
2023/06/16 11:29:53;;;;;;;4.97;2.28;;;;;;;;;;5004410;28;91937;-78
2023/06/16 11:32:23;;;;;;;4.50;2.53;;;;;;;;;;5027612;28;91873;-78
2023/06/16 11:34:51;;;;;;;4.03;2.20;;;;;;;;;;5004743;28;91963;-77
2023/06/16 11:37:18;;;;;;;3.40;2.30;;;;;;;;;;5016899;28;91965;-77
2023/06/16 11:39:45;;;;;;;3.75;2.30;;;;;;;;;;4994860;28;91993;-79
2023/06/16 11:42:15;;;;;;;7.47;2.80;;;;;;;;;;5012442;28;93041;-78
2023/06/16 11:44:42;;;;;;;10.80;2.07;;;;;;;;;;5013354;28;91964;-78
2023/06/16 11:47:09;;;;;;;2.60;1.95;;;;;;;;;;5011321;28;91504;-78
2023/06/16 11:49:36;;;;;;;5.95;2.42;;;;;;;;;;5009505;27;92025;-78
2023/06/16 11:52:06;;;;;;;2.60;2.40;;;;;;;;;;5011255;28;92196;-77
2023/06/16 11:54:33;;;;;;;11.10;2.03;;;;;;;;;;5035176;28;91783;-78
2023/06/16 11:57:00;;;;;;;4.82;2.25;;;;;;;;;;5008306;28;91431;-78
2023/06/16 11:59:30;;;;;;;3.03;2.60;;;;;;;;;;5025128;28;92194;-78
2023/06/16 12:01:57;;;;;;;7.47;2.22;;;;;;;;;;5020534;28;92951;-77
2023/06/16 12:04:26;;;;;;;3.75;2.30;;;;;;;;;;5001547;28;91996;-77
2023/06/16 12:06:56;;;;;;;6.38;2.40;;;;;;;;;;5010308;28;92043;-78
2023/06/16 12:09:24;;;;;;;6.60;2.60;;;;;;;;;;5005444;28;92311;-78
2023/06/16 12:11:51;;;;;;;4.53;2.17;;;;;;;;;;5013783;28;92239;-78
2023/06/16 12:14:21;;;;;;;7.45;2.22;;;;;;;;;;5003911;28;91968;-78
2023/06/16 12:16:49;;;;;;;14.65;2.20;;;;;;;;;;5022182;27;95311;-78
2023/06/16 12:19:21;;;;;;;6.38;2.08;;;;;;;;;;5026160;28;92023;-78
2023/06/16 12:21:48;;;;;;;2.20;1.90;;;;;;;;;;5022634;28;92005;-78
2023/06/16 12:24:18;;;;;;;9.85;2.67;;;;;;;;;;4989602;28;92101;-78
2023/06/16 12:26:44;;;;;;;10.43;3.17;;;;;;;;;;4996614;28;92636;-79
2023/06/16 12:29:15;;;;;;;8.13;2.20;;;;;;;;;;4985701;28;91982;-78
2023/06/16 12:31:58;;;;;;;3.50;2.60;;;;;;;;;;5002424;28;92113;-78
2023/06/16 12:34:25;;;;;;;4.18;1.83;;;;;;;;;;5011138;28;93431;-79
2023/06/16 12:36:53;;;;;;;8.32;2.25;;;;;;;;;;5015644;28;92125;-79
2023/06/16 12:39:20;;;;;;;6.43;2.05;;;;;;;;;;4993897;28;92421;-79
2023/06/16 12:41:56;;;;;;;5.63;2.20;;;;;;;;;;5000181;28;92192;-79
2023/06/16 12:44:23;;;;;;;4.47;2.67;;;;;;;;;;4977862;28;92254;-79
2023/06/16 12:46:50;;;;;;;6.30;2.20;;;;;;;;;;5005016;28;92399;-79
2023/06/16 12:49:16;;;;;;;5.30;2.30;;;;;;;;;;5006064;28;92127;-78
2023/06/16 12:51:43;;;;;;;4.00;2.30;;;;;;;;;;5006517;28;92221;-78
2023/06/16 12:54:12;;;;;;;9.10;2.50;;;;;;;;;;5005785;28;92167;-79
2023/06/16 12:56:39;;;;;;;4.80;2.30;;;;;;;;;;5005463;28;91943;-80
2023/06/16 12:59:06;;;;;;;4.50;2.15;;;;;;;;;;4997014;28;92262;-79
2023/06/16 13:01:32;;;;;;;8.27;2.72;;;;;;;;;;5010647;28;92328;-79
2023/06/16 13:03:59;;;;;;;5.25;2.63;;;;;;;;;;5002229;28;92345;-78
2023/06/16 13:06:25;;;;;;;2.45;2.00;;;;;;;;;;4987364;28;92058;-79
2023/06/16 13:08:52;;;;;;;5.53;2.17;;;;;;;;;;5014704;28;91692;-79
2023/06/16 13:11:19;;;;;;;4.53;2.08;;;;;;;;;;5004633;28;91945;-79
2023/06/16 13:13:46;;;;;;;2.75;1.90;;;;;;;;;;5003423;28;91920;-78
2023/06/16 13:16:12;;;;;;;4.70;2.25;;;;;;;;;;5006342;28;92847;-77
2023/06/16 13:18:39;;;;;;;4.47;2.17;;;;;;;;;;5004238;28;91916;-79
2023/06/16 13:21:06;;;;;;;4.13;2.03;;;;;;;;;;5003525;28;92583;-78
2023/06/16 13:23:32;;;;;;;3.38;2.10;;;;;;;;;;4999014;28;92244;-78
2023/06/16 13:25:59;;;;;;;2.33;2.03;;;;;;;;;;4999717;28;92393;-78
2023/06/16 13:28:25;;;;;;;8.95;2.75;;;;;;;;;;5004442;28;92247;-78
2023/06/16 13:30:52;;;;;;;6.63;2.22;;;;;;;;;;4997656;28;91834;-78
2023/06/16 13:33:18;;;;;;;3.10;2.25;;;;;;;;;;5008375;28;92133;-78
2023/06/16 13:35:45;;;;;;;8.60;2.13;;;;;;;;;;5010836;28;91985;-78
2023/06/16 13:38:12;;;;;;;3.22;1.98;;;;;;;;;;4983431;28;92240;-78
2023/06/16 13:40:38;;;;;;;3.00;2.30;;;;;;;;;;5037821;28;91670;-78
2023/06/16 13:43:05;;;;;;;6.72;2.20;;;;;;;;;;5021337;28;94951;-78
2023/06/16 13:45:32;;;;;;;6.95;2.13;;;;;;;;;;5011802;28;91274;-78
2023/06/16 13:47:59;;;;;;;3.22;1.98;;;;;;;;;;5011531;28;92101;-78
2023/06/16 13:50:25;;;;;;;4.75;1.92;;;;;;;;;;5008930;28;92021;-78
2023/06/16 13:52:52;;;;;;;4.57;2.60;;;;;;;;;;5013966;28;91957;-79
2023/06/16 13:55:19;;;;;;;7.45;2.05;;;;;;;;;;5011549;28;93011;-76
2023/06/16 13:57:45;;;;;;;1.83;1.70;;;;;;;;;;5009388;28;91871;-77
2023/06/16 14:00:12;;;;;;;9.10;2.10;;;;;;;;;;5007899;28;92155;-76
2023/06/16 14:02:39;;;;;;;5.07;2.10;;;;;;;;;;4989957;28;91883;-77
2023/06/16 14:05:06;;;;;;;2.05;1.73;;;;;;;;;;4983434;28;92240;-77
2023/06/16 14:07:32;;;;;;;12.40;3.13;;;;;;;;;;4981428;28;92614;-77
2023/06/16 14:09:59;;;;;;;6.38;1.83;;;;;;;;;;4993534;28;92092;-78
2023/06/16 14:12:26;;;;;;;3.42;1.80;;;;;;;;;;4985170;28;92018;-77
2023/06/16 14:14:52;;;;;;;3.20;1.90;;;;;;;;;;5002227;28;92049;-78
2023/06/16 14:17:18;;;;;;;2.85;1.70;;;;;;;;;;5005709;28;92007;-78
2023/06/16 14:19:45;;;;;;;4.55;1.90;;;;;;;;;;5001759;28;92087;-78
2023/06/16 14:22:12;;;;;;;3.90;1.70;;;;;;;;;;5000116;28;92016;-77
2023/06/16 14:24:38;;;;;;;5.35;1.92;;;;;;;;;;4987962;28;91987;-78
2023/06/16 14:27:05;;;;;;;3.33;1.75;;;;;;;;;;5006974;28;91936;-77
2023/06/16 14:29:34;;;;;;;6.00;1.75;;;;;;;;;;5002788;28;92369;-77
2023/06/16 14:32:03;;;;;;;8.32;2.08;;;;;;;;;;5015867;28;93911;-78
2023/06/16 14:34:29;;;;;;;3.42;1.70;;;;;;;;;;4998770;28;92420;-77
2023/06/16 14:36:56;;;;;;;3.03;1.67;;;;;;;;;;4996833;28;92155;-77
2023/06/16 14:39:23;;;;;;;4.65;2.33;;;;;;;;;;4991555;28;92233;-78
2023/06/16 14:41:50;;;;;;;2.45;1.75;;;;;;;;;;4987147;28;92165;-78
2023/06/16 14:44:16;;;;;;;3.78;2.03;;;;;;;;;;4995243;28;91921;-78